.
WxDataArchive / Data Records for 2011-07-03
2011-07-02 July 2011 2011-07-04

Data Records for Sunday, 03 July 2011

Time	Temp	Chill	HIndex	Humid	Dewpt	 Wind 	HiWind	WindDir	Rain 	Barom 
-----	----	-----	------	-----	-----	------	------	-------	-----	----- 
00:00	73.9	73.9	73.9	67	62.2	0	1	270	0.00	29.954 
00:05	73.7	73.7	73.7	67	62.0	0	3	270	0.00	29.954 
00:10	73.7	73.7	73.7	67	62.0	1	4	270	0.00	29.954 
00:15	73.7	73.7	73.7	67	62.0	1	4	270	0.00	29.963 
00:20	73.7	73.7	73.7	67	62.0	1	3	270	0.00	29.963 
00:25	73.7	73.7	73.7	67	62.0	1	5	270	0.00	29.963 
00:30	73.7	73.7	73.7	67	62.0	1	3	270	0.00	29.956 
00:35	73.9	73.9	73.9	67	62.2	2	3	338	0.00	29.956 
00:40	73.9	73.9	73.9	67	62.2	1	4	338	0.00	29.956 
00:45	73.9	73.9	73.9	67	62.2	2	4	315	0.00	29.952 
00:50	73.9	73.9	73.9	67	62.2	1	2	315	0.00	29.952 
00:55	73.9	73.9	73.9	67	62.2	1	3	315	0.00	29.952 
01:00	73.9	73.9	73.9	68	62.7	1	3	315	0.00	29.953 
01:05	73.9	73.9	73.9	68	62.7	1	3	315	0.00	29.953 
01:10	73.9	73.9	73.9	68	62.7	1	3	315	0.00	29.953 
01:15	73.9	73.9	73.9	68	62.7	1	3	315	0.00	29.952 
01:20	73.9	73.9	73.9	68	62.7	0	1	315	0.00	29.952 
01:25	73.9	73.9	73.9	68	62.7	1	4	315	0.00	29.952 
01:30	73.9	73.9	73.9	69	63.1	1	3	270	0.00	29.952 
01:35	73.9	73.9	73.9	69	63.1	1	2	270	0.00	29.952 
01:40	73.9	73.9	73.9	69	63.1	0	3	270	0.00	29.952 
01:45	73.7	73.7	73.7	70	63.3	0	1	270	0.00	29.944 
01:50	73.7	73.7	73.7	70	63.3	1	3	270	0.00	29.944 
01:55	73.7	73.7	73.7	70	63.3	1	3	270	0.00	29.944 
02:00	73.9	73.9	73.9	70	63.5	1	3	270	0.00	29.962 
02:05	73.7	73.7	73.7	71	63.7	1	4	270	0.00	29.962 
02:10	73.5	73.5	73.5	71	63.5	1	4	270	0.00	29.962 
02:15	73.2	73.2	73.2	72	63.6	0	1	270	0.00	29.950 
02:20	73.0	73.0	73.0	73	63.8	0	1	270	0.00	29.950 
02:25	73.0	73.0	73.0	73	63.8	0	2	270	0.00	29.950 
02:30	73.0	73.0	73.0	73	63.8	0	2	270	0.00	29.936 
02:35	73.2	73.2	73.2	73	64.0	0	3	270	0.00	29.936 
02:40	73.2	73.2	73.2	72	63.6	0	1	270	0.00	29.936 
02:45	73.5	73.5	73.5	72	63.9	0	2	270	0.00	29.927 
02:50	73.5	73.5	73.5	71	63.5	1	4	270	0.00	29.927 
02:55	73.7	73.7	73.7	72	64.1	0	2	315	0.00	29.927 
03:00	73.5	73.5	73.5	72	63.9	0	1	315	0.00	29.923 
03:05	73.3	73.3	73.3	73	64.1	0	1	315	0.00	29.923 
03:10	73.2	73.2	73.2	73	64.0	0	0	---	0.00	29.923 
03:15	73.0	73.0	73.0	73	63.8	0	1	315	0.00	29.932 
03:20	73.0	73.0	73.0	74	64.2	0	0	---	0.00	29.932 
03:25	72.8	72.8	72.8	74	64.0	0	0	---	0.00	29.932 
03:30	72.7	72.7	72.7	75	64.3	0	0	---	0.00	29.934 
03:35	72.5	72.5	72.5	75	64.1	0	0	---	0.00	29.934 
03:40	72.3	72.3	72.3	76	64.3	0	0	---	0.00	29.934 
03:45	72.1	72.1	72.1	76	64.1	0	0	---	0.00	29.934 
03:50	72.1	72.1	72.1	76	64.1	0	0	---	0.00	29.934 
03:55	72.0	72.0	72.0	77	64.4	0	0	---	0.00	29.934 
04:00	71.6	71.6	71.6	77	64.0	0	0	---	0.00	29.937 
04:05	71.5	71.5	71.5	78	64.3	0	0	---	0.00	29.937 
04:10	71.1	71.1	71.1	78	63.9	0	0	---	0.00	29.937 
04:15	70.9	70.9	70.9	80	64.4	0	0	---	0.00	29.933 
04:20	70.8	70.8	70.8	80	64.3	0	0	---	0.00	29.933 
04:25	70.8	70.8	70.8	81	64.7	0	0	---	0.00	29.933 
04:30	70.6	70.6	70.6	81	64.5	0	0	---	0.00	29.931 
04:35	70.3	70.3	70.3	81	64.2	0	0	---	0.00	29.931 
04:40	70.1	70.1	70.1	82	64.3	0	0	---	0.00	29.931 
04:45	70.1	70.1	70.1	82	64.3	0	1	315	0.00	29.936 
04:50	70.1	70.1	70.1	83	64.7	0	1	315	0.00	29.936 
04:55	70.1	70.1	70.1	83	64.7	0	1	315	0.00	29.936 
05:00	70.3	70.3	70.3	82	64.5	0	2	315	0.00	29.935 
05:05	70.4	70.4	70.4	82	64.6	0	1	315	0.00	29.935 
05:10	70.4	70.4	70.4	82	64.6	0	1	315	0.00	29.935 
05:15	70.4	70.4	70.4	82	64.6	0	0	---	0.00	29.935 
05:20	70.3	70.3	70.3	82	64.5	0	0	---	0.00	29.935 
05:25	70.3	70.3	70.3	82	64.5	0	0	---	0.00	29.935 
05:30	70.1	70.1	70.1	82	64.3	0	0	---	0.00	29.936 
05:35	70.1	70.1	70.1	83	64.7	0	0	---	0.00	29.936 
05:40	69.9	69.9	69.9	83	64.5	0	0	---	0.00	29.936 
05:45	69.6	69.6	69.6	83	64.2	0	0	---	0.00	29.940 
05:50	69.6	69.6	69.6	84	64.5	0	0	---	0.00	29.940 
05:55	69.4	69.4	69.4	84	64.3	0	0	---	0.00	29.940 
06:00	69.3	69.3	69.3	84	64.2	0	0	---	0.00	29.947 
06:05	69.1	69.1	69.1	85	64.4	0	0	---	0.00	29.947 
06:10	68.9	68.9	68.9	85	64.2	0	1	315	0.00	29.947 
06:15	68.9	68.9	68.9	85	64.2	0	0	---	0.00	29.953 
06:20	68.8	68.8	68.8	86	64.4	0	0	---	0.00	29.953 
06:25	68.6	68.6	68.6	86	64.2	0	1	315	0.00	29.953 
06:30	68.4	68.4	68.4	87	64.4	0	0	---	0.00	29.957 
06:35	68.4	68.4	68.4	87	64.4	0	1	315	0.00	29.957 
06:40	68.4	68.4	68.4	87	64.4	0	1	315	0.00	29.957 
06:45	68.4	68.4	68.4	88	64.7	0	0	---	0.00	29.962 
06:50	68.4	68.4	68.4	88	64.7	0	0	---	0.00	29.962 
06:55	68.4	68.4	68.4	88	64.7	0	1	22	0.00	29.962 
07:00	68.6	68.6	68.6	88	64.9	0	0	---	0.00	29.963 
07:05	68.6	68.6	68.6	88	64.9	0	1	22	0.00	29.963 
07:10	68.8	68.8	68.8	88	65.1	0	1	22	0.00	29.963 
07:15	68.9	68.9	68.9	88	65.2	0	1	22	0.00	29.975 
07:20	69.1	69.1	69.1	88	65.4	0	1	22	0.00	29.975 
07:25	69.3	69.3	69.3	88	65.6	0	1	22	0.00	29.975 
07:30	69.4	69.4	69.4	88	65.7	0	0	---	0.00	29.975 
07:35	69.6	69.6	69.6	87	65.6	0	0	---	0.00	29.975 
07:40	69.8	69.8	69.8	87	65.7	0	1	22	0.00	29.975 
07:45	70.1	70.1	70.1	86	65.7	0	1	22	0.00	29.979 
07:50	70.4	70.4	70.4	86	66.0	0	1	45	0.00	29.979 
07:55	70.6	70.6	70.6	85	65.9	0	1	45	0.00	29.979 
08:00	70.8	70.8	70.8	85	66.1	0	1	45	0.00	29.977 
08:05	70.9	70.9	70.9	85	66.2	0	1	45	0.00	29.977 
08:10	71.3	71.3	71.3	85	66.5	0	1	45	0.00	29.977 
08:15	71.5	71.5	71.5	84	66.4	0	1	45	0.00	29.976 
08:20	72.0	72.0	72.0	83	66.5	0	1	45	0.00	29.976 
08:25	72.7	72.7	72.7	82	66.9	0	1	45	0.00	29.976 
08:30	73.2	73.2	73.2	80	66.6	0	2	45	0.00	29.976 
08:35	73.9	73.9	73.9	79	67.0	0	2	45	0.00	29.976 
08:40	74.6	74.6	74.6	78	67.3	0	2	45	0.00	29.976 
08:45	75.1	75.1	76.3	75	66.6	0	3	45	0.00	29.973 
08:50	75.4	75.4	76.6	75	66.9	0	2	315	0.00	29.973 
08:55	76.0	76.0	77.4	74	67.1	0	1	315	0.00	29.973 
09:00	76.3	76.3	77.8	73	67.0	1	4	135	0.00	29.971 
09:05	76.8	76.8	78.5	72	67.1	0	2	135	0.00	29.971 
09:10	77.2	77.2	79.0	71	67.0	0	2	135	0.00	29.971 
09:15	77.9	77.9	79.8	68	66.5	1	4	135	0.00	29.966 
09:20	78.3	78.3	80.3	68	66.8	1	6	112	0.00	29.966 
09:25	78.6	78.6	80.7	67	66.7	0	4	135	0.00	29.966 
09:30	79.4	79.4	81.6	66	67.0	1	2	112	0.00	29.964 
09:35	79.8	79.8	82.1	65	67.0	1	4	112	0.00	29.964 
09:40	79.9	79.9	82.3	66	67.5	0	4	112	0.00	29.964 
09:45	80.3	80.3	82.5	63	66.5	1	7	135	0.00	29.963 
09:50	80.1	80.1	82.4	64	66.8	1	3	0	0.00	29.963 
09:55	80.1	80.1	82.2	62	65.9	1	3	68	0.00	29.963 
10:00	80.3	80.3	82.8	65	67.4	1	5	68	0.00	29.956 
10:05	80.3	80.3	82.7	64	67.0	0	1	68	0.00	29.956 
10:10	80.7	80.7	82.8	61	66.0	1	5	135	0.00	29.956 
10:15	81.1	81.1	83.3	61	66.4	1	5	135	0.00	29.955 
10:20	81.2	81.2	83.5	61	66.4	1	3	112	0.00	29.955 
10:25	81.8	81.8	83.8	58	65.6	1	3	112	0.00	29.955 
10:30	82.0	82.0	84.4	60	66.7	0	3	112	0.00	29.964 
10:35	82.2	82.2	84.5	59	66.4	0	3	112	0.00	29.964 
10:40	82.6	82.6	85.1	59	66.8	1	4	112	0.00	29.964 
10:45	82.8	82.8	85.2	58	66.5	1	5	90	0.00	29.967 
10:50	82.6	82.6	85.1	59	66.8	1	4	90	0.00	29.967 
10:55	82.2	82.2	84.5	59	66.4	0	1	90	0.00	29.967 
11:00	82.2	82.2	84.7	60	66.9	0	2	90	0.00	29.966 
11:05	82.2	82.2	84.3	58	65.9	0	2	90	0.00	29.966 
11:10	82.4	82.4	84.8	59	66.6	0	1	90	0.00	29.966 
11:15	82.4	82.4	84.1	55	64.6	0	1	90	0.00	29.974 
11:20	82.6	82.6	85.1	59	66.8	1	3	90	0.00	29.974 
11:25	83.0	83.0	84.7	54	64.6	2	5	90	0.00	29.974 
11:30	83.4	83.4	85.4	55	65.5	1	4	112	0.00	29.975 
11:35	83.6	83.6	85.9	56	66.2	1	5	112	0.00	29.975 
11:40	84.1	84.1	85.9	53	65.1	0	2	112	0.00	29.975 
11:45	84.5	84.5	86.3	52	64.9	2	3	112	0.00	29.972 
11:50	84.9	84.9	87.3	54	66.4	0	2	112	0.00	29.972 
11:55	85.1	85.1	87.4	53	66.0	1	4	112	0.00	29.972 
12:00	84.7	84.7	86.3	51	64.5	1	3	112	0.00	29.970 
12:05	84.5	84.5	86.7	54	66.0	0	5	112	0.00	29.970 
12:10	84.9	84.9	86.8	52	65.3	1	5	112	0.00	29.970 
12:15	85.3	85.3	87.1	51	65.1	1	4	112	0.00	29.968 
12:20	85.5	85.5	87.2	50	64.7	1	4	112	0.00	29.968 
12:25	85.7	85.7	87.7	51	65.5	1	4	112	0.00	29.968 
12:30	85.7	85.7	88.3	53	66.6	0	1	112	0.00	29.962 
12:35	85.1	85.1	86.9	51	64.9	0	2	112	0.00	29.962 
12:40	84.7	84.7	87.3	55	66.7	0	2	112	0.00	29.962 
12:45	84.7	84.7	86.8	53	65.6	1	3	135	0.00	29.967 
12:50	85.3	85.3	86.6	49	63.9	1	3	292	0.00	29.967 
12:55	85.7	85.7	87.4	50	64.9	1	4	315	0.00	29.967 
13:00	85.9	85.9	88.0	51	65.6	1	4	292	0.00	29.968 
13:05	86.5	86.5	89.3	52	66.7	1	4	292	0.00	29.968 
13:10	87.0	87.0	88.8	48	64.9	1	3	292	0.00	29.968 
13:15	87.2	87.2	87.6	43	61.9	1	4	112	0.00	29.959 
13:20	87.4	87.4	88.5	45	63.4	0	3	112	0.00	29.959 
13:25	87.4	87.4	88.8	46	64.0	0	2	112	0.00	29.959 
13:30	87.0	87.0	88.2	46	63.7	0	1	112	0.00	29.958 
13:35	86.3	86.3	87.5	47	63.7	0	2	112	0.00	29.958 
13:40	86.1	86.1	87.0	46	62.9	1	3	315	0.00	29.958 
13:45	86.7	86.7	87.8	46	63.4	0	2	315	0.00	29.957 
13:50	87.4	87.4	89.1	47	64.7	0	2	315	0.00	29.957 
13:55	87.8	87.8	89.4	46	64.4	1	3	270	0.00	29.957 
14:00	87.6	87.6	89.1	46	64.2	1	4	270	0.00	29.951 
14:05	87.4	87.4	88.2	44	62.8	1	3	270	0.00	29.951 
14:10	88.0	88.0	88.5	42	62.0	1	3	270	0.00	29.951 
14:15	88.0	88.0	88.5	42	62.0	1	3	270	0.00	29.950 
14:20	87.6	87.6	87.9	42	61.6	1	3	270	0.00	29.950 
14:25	87.8	87.8	89.1	45	63.8	1	4	270	0.00	29.950 
14:30	87.8	87.8	87.9	41	61.1	1	4	270	0.00	29.948 
14:35	87.4	87.4	87.9	43	62.1	0	2	270	0.00	29.948 
14:40	87.4	87.4	87.6	42	61.5	0	1	315	0.00	29.948 
14:45	88.0	88.0	88.7	43	62.7	1	3	315	0.00	29.944 
14:50	88.2	88.2	89.3	44	63.5	1	3	292	0.00	29.944 
14:55	88.6	88.6	89.6	43	63.2	1	3	292	0.00	29.944 
15:00	88.4	88.4	88.4	40	61.0	2	4	292	0.00	29.940 
15:05	88.6	88.6	89.3	42	62.5	1	5	270	0.00	29.940 
15:10	88.0	88.0	88.2	41	61.3	1	2	338	0.00	29.940 
15:15	88.0	88.0	87.9	40	60.6	1	5	270	0.00	29.942 
15:20	88.6	88.6	89.0	41	61.8	1	4	270	0.00	29.942 
15:25	88.6	88.6	88.4	39	60.4	1	4	270	0.00	29.942 
15:30	89.3	89.3	88.5	36	58.8	1	3	270	0.00	29.937 
15:35	89.7	89.7	88.8	35	58.4	1	4	270	0.00	29.937 
15:40	89.5	89.5	88.3	34	57.4	1	3	270	0.00	29.937 
15:45	89.3	89.3	88.5	36	58.8	1	2	315	0.00	29.935 
15:50	89.3	89.3	88.0	34	57.2	1	2	315	0.00	29.935 
15:55	89.3	89.3	88.5	36	58.8	1	2	315	0.00	29.935 
16:00	89.0	89.0	89.0	39	60.8	0	2	315	0.00	29.927 
16:05	89.3	89.3	89.7	40	61.8	0	2	315	0.00	29.927 
16:10	89.3	89.3	88.8	37	59.6	1	3	315	0.00	29.927 
16:15	89.0	89.0	88.7	38	60.1	1	4	292	0.00	29.922 
16:20	88.8	88.8	87.9	36	58.4	2	4	292	0.00	29.922 
16:25	88.6	88.6	87.6	36	58.2	1	3	292	0.00	29.922 
16:30	88.4	88.4	87.6	37	58.8	1	4	292	0.00	29.922 
16:35	88.4	88.4	87.9	38	59.5	1	4	292	0.00	29.922 
16:40	88.0	88.0	86.9	36	57.7	0	2	292	0.00	29.922 
16:45	88.2	88.2	87.6	38	59.3	0	3	292	0.00	29.910 
16:50	88.4	88.4	87.2	35	57.2	1	3	292	0.00	29.910 
16:55	88.2	88.2	87.6	38	59.3	0	2	292	0.00	29.910 
17:00	88.2	88.2	87.6	38	59.3	0	3	22	0.00	29.903 
17:05	88.4	88.4	87.9	38	59.5	0	1	338	0.00	29.903 
17:10	88.2	88.2	87.9	39	60.1	0	2	338	0.00	29.903 
17:15	87.6	87.6	86.9	38	58.8	0	2	338	0.00	29.895 
17:20	87.2	87.2	86.6	39	59.2	0	1	338	0.00	29.895 
17:25	87.0	87.0	86.4	39	59.0	0	3	338	0.00	29.895 
17:30	87.0	87.0	86.9	41	60.4	0	2	338	0.00	29.888 
17:35	86.7	86.7	87.0	43	61.5	0	2	338	0.00	29.888 
17:40	86.7	86.7	87.0	43	61.5	0	2	338	0.00	29.888 
17:45	87.0	87.0	87.1	42	61.1	0	1	338	0.00	29.894 
17:50	87.2	87.2	86.9	40	59.9	0	2	338	0.00	29.894 
17:55	87.0	87.0	86.6	40	59.7	0	2	338	0.00	29.894 
18:00	86.5	86.5	86.5	42	60.6	0	3	338	0.00	29.884 
18:05	86.3	86.3	86.0	41	59.8	0	1	202	0.00	29.884 
18:10	86.3	86.3	86.5	43	61.1	0	1	202	0.00	29.884 
18:15	86.1	86.1	86.0	42	60.3	1	3	202	0.00	29.886 
18:20	85.9	85.9	86.4	45	62.1	1	4	315	0.00	29.886 
18:25	86.3	86.3	86.7	44	61.8	1	3	315	0.00	29.886 
18:30	86.1	86.1	86.7	45	62.2	2	5	292	0.00	29.890 
18:35	86.1	86.1	87.0	46	62.9	1	3	292	0.00	29.890 
18:40	86.3	86.3	87.0	45	62.4	1	4	292	0.00	29.890 
18:45	86.1	86.1	86.5	44	61.6	1	3	292	0.00	29.890 
18:50	86.1	86.1	86.5	44	61.6	1	3	292	0.00	29.890 
18:55	86.3	86.3	87.2	46	63.0	1	3	315	0.00	29.890 
19:00	86.3	86.3	86.7	44	61.8	2	5	292	0.00	29.890 
19:05	86.1	86.1	86.7	45	62.2	2	5	315	0.00	29.890 
19:10	85.7	85.7	86.2	45	61.9	2	5	292	0.00	29.890 
19:15	85.7	85.7	86.4	46	62.5	3	6	315	0.00	29.893 
19:20	85.5	85.5	86.4	47	62.9	1	4	292	0.00	29.893 
19:25	85.3	85.3	85.9	46	62.1	2	6	292	0.00	29.893 
19:30	85.1	85.1	85.9	47	62.6	2	4	270	0.00	29.894 
19:35	85.1	85.1	85.9	47	62.6	2	4	292	0.00	29.894 
19:40	84.9	84.9	85.6	47	62.4	2	4	292	0.00	29.894 
19:45	84.7	84.7	85.4	47	62.2	2	5	292	0.00	29.897 
19:50	84.5	84.5	85.6	49	63.2	2	5	270	0.00	29.897 
19:55	84.5	84.5	85.6	49	63.2	1	4	270	0.00	29.897 
20:00	84.1	84.1	85.3	50	63.4	1	3	315	0.00	29.897 
20:05	84.0	84.0	85.1	50	63.3	1	3	270	0.00	29.897 
20:10	83.8	83.8	85.1	51	63.7	1	4	270	0.00	29.897 
20:15	83.4	83.4	84.8	52	63.9	2	5	315	0.00	29.899 
20:20	82.8	82.8	84.2	53	63.9	1	3	292	0.00	29.899 
20:25	82.4	82.4	83.9	54	64.1	1	4	315	0.00	29.899 
20:30	82.2	82.2	83.6	54	63.9	1	3	315	0.00	29.899 
20:35	81.8	81.8	83.3	55	64.0	0	2	315	0.00	29.899 
20:40	81.4	81.4	82.7	54	63.1	1	3	338	0.00	29.899 
20:45	81.2	81.2	82.6	55	63.5	0	2	338	0.00	29.907 
20:50	80.9	80.9	81.9	52	61.6	1	4	292	0.00	29.907 
20:55	80.7	80.7	81.6	51	60.9	0	2	292	0.00	29.907 
21:00	80.3	80.3	81.2	51	60.5	1	3	292	0.00	29.907 
21:05	80.1	80.1	81.1	52	60.9	0	3	292	0.00	29.907 
21:10	79.9	79.9	80.9	52	60.7	0	1	292	0.00	29.907 
21:15	79.6	79.6	80.7	53	60.9	0	4	292	0.00	29.907 
21:20	79.4	79.4	80.6	54	61.3	0	2	292	0.00	29.907 
21:25	79.0	79.0	80.3	55	61.4	0	2	292	0.00	29.907 
21:30	78.8	78.8	80.2	56	61.8	0	3	292	0.00	29.903 
21:35	78.6	78.6	80.1	57	62.1	0	2	292	0.00	29.903 
21:40	78.5	78.5	80.0	57	62.0	0	1	292	0.00	29.903 
21:45	78.3	78.3	79.9	58	62.3	0	1	292	0.00	29.913 
21:50	78.1	78.1	79.7	58	62.1	0	1	292	0.00	29.913 
21:55	77.9	77.9	79.5	58	61.9	0	2	315	0.00	29.913 
22:00	77.7	77.7	79.4	59	62.2	0	1	315	0.00	29.918 
22:05	77.6	77.6	79.3	59	62.1	0	1	315	0.00	29.918 
22:10	77.6	77.6	79.3	59	62.1	0	1	315	0.00	29.918 
22:15	77.4	77.4	79.1	59	61.9	0	1	315	0.00	29.926 
22:20	77.2	77.2	78.9	59	61.7	0	1	315	0.00	29.926 
22:25	77.2	77.2	78.9	59	61.7	0	1	315	0.00	29.926 
22:30	77.0	77.0	78.8	59	61.6	0	1	315	0.00	29.930 
22:35	77.0	77.0	78.8	60	62.0	0	1	315	0.00	29.930 
22:40	76.8	76.8	78.6	60	61.8	0	0	---	0.00	29.930 
22:45	76.7	76.7	78.5	61	62.2	0	0	---	0.00	29.926 
22:50	76.3	76.3	78.2	62	62.3	0	0	---	0.00	29.926 
22:55	76.0	76.0	78.0	62	62.0	0	0	---	0.00	29.926 
23:00	75.8	75.8	77.8	62	61.8	0	1	315	0.00	29.930 
23:05	75.8	75.8	77.8	63	62.3	0	1	315	0.00	29.930 
23:10	75.6	75.6	77.7	62	61.6	0	1	315	0.00	29.930 
23:15	75.6	75.6	77.7	62	61.6	0	0	---	0.00	29.933 
23:20	75.4	75.4	77.5	63	61.9	0	0	---	0.00	29.933 
23:25	75.3	75.3	77.4	63	61.8	0	0	---	0.00	29.933 
23:30	74.9	74.9	74.9	63	61.4	0	0	---	0.00	29.935 
23:35	74.9	74.9	74.9	64	61.9	0	2	315	0.00	29.935 
23:40	74.7	74.7	74.7	65	62.1	0	0	---	0.00	29.935 
23:45	74.6	74.6	74.6	65	62.0	0	1	315	0.00	29.929 
23:50	74.6	74.6	74.6	65	62.0	0	1	315	0.00	29.929 
23:55	74.4	74.4	74.4	66	62.3	0	1	315	0.00	29.929 

CoCoRaHS
IN-AL-39
A2 Web Hosting
Creative Commons License
GoDaddy
search engine by freefind advanced

loaded 2018-11-22 06:25:46 • last modified 2010-11-18 10:43:29
Privacy PolicyDisclaimer
• wx.awcolley.com is powered by PmWiki v.2002016 •
• all content (unless otherwise noted) © 2018 A W Colley